Time;durP1;ratioP1;P1;durP2;ratioP2;P2;SDS_P1;SDS_P2;PMS_P1;PMS_P2;Temp;Humidity;BMP_temperature;BMP_pressure;BME280_temperature;BME280_humidity;BME280_pressure;Samples;Min_cycle;Max_cycle;Signal;HPM_P1;HPM_P2
2021/01/01 00:01:54;;;;;;;66.63;51.23;;;7.10;99.90;;;;;;5051142;28;20175;-72
2021/01/01 00:04:20;;;;;;;43.80;33.97;;;7.10;99.90;;;;;;5052429;28;20167;-72
2021/01/01 00:06:49;;;;;;;35.17;27.40;;;7.10;99.90;;;;;;5082785;28;20390;-72
2021/01/01 00:09:17;;;;;;;31.83;25.00;;;7.10;99.90;;;;;;5051656;28;20380;-72
2021/01/01 00:11:52;;;;;;;30.67;25.20;;;7.10;99.90;;;;;;5052280;28;20402;-72
2021/01/01 00:14:18;;;;;;;39.87;27.87;;;7.20;99.90;;;;;;5051960;28;20862;-73
2021/01/01 00:16:46;;;;;;;40.20;31.07;;;7.10;99.90;;;;;;5052315;28;20398;-73
2021/01/01 00:19:12;;;;;;;36.53;29.33;;;7.20;99.90;;;;;;5050769;28;20690;-73
2021/01/01 00:21:38;;;;;;;90.33;66.23;;;7.20;99.90;;;;;;5055540;28;20396;-73
2021/01/01 00:24:05;;;;;;;184.93;111.97;;;7.20;99.90;;;;;;5050198;28;20927;-74
2021/01/01 00:26:30;;;;;;;51.97;35.73;;;7.20;99.90;;;;;;5050129;28;20450;-73
2021/01/01 00:28:56;;;;;;;40.53;25.87;;;7.20;99.90;;;;;;5050009;28;21006;-76
2021/01/01 00:31:24;;;;;;;32.80;25.73;;;7.30;99.90;;;;;;5052164;28;20396;-73
2021/01/01 00:33:51;;;;;;;34.10;25.97;;;7.30;99.90;;;;;;5051326;28;20172;-75
2021/01/01 00:36:18;;;;;;;32.20;25.37;;;7.30;99.90;;;;;;5051577;28;20428;-73
2021/01/01 00:38:50;;;;;;;34.07;27.00;;;7.30;99.90;;;;;;5052182;28;20772;-73
2021/01/01 00:41:23;;;;;;;35.13;26.43;;;7.30;99.80;;;;;;5049816;28;20357;-71
2021/01/01 00:43:50;;;;;;;37.80;26.03;;;7.30;99.80;;;;;;5051933;28;20406;-72
2021/01/01 00:46:16;;;;;;;33.20;25.40;;;7.30;99.80;;;;;;5049975;28;20495;-73
2021/01/01 00:48:42;;;;;;;34.40;25.53;;;7.20;99.80;;;;;;5050692;28;20478;-73
2021/01/01 00:51:08;;;;;;;35.83;26.03;;;7.20;99.80;;;;;;5054229;28;20711;-73
2021/01/01 00:53:33;;;;;;;34.20;25.30;;;7.20;99.80;;;;;;5051702;28;20182;-73
2021/01/01 00:55:59;;;;;;;34.97;26.73;;;7.20;99.90;;;;;;5049863;28;20182;-74
2021/01/01 00:58:25;;;;;;;37.23;26.63;;;7.20;99.90;;;;;;5050633;28;20191;-74
2021/01/01 01:00:50;;;;;;;37.63;27.20;;;7.20;99.90;;;;;;5061741;28;20252;-74
2021/01/01 01:03:16;;;;;;;36.77;27.50;;;7.20;99.90;;;;;;5050492;28;20266;-74
2021/01/01 01:05:42;;;;;;;35.57;28.20;;;7.20;99.90;;;;;;5045767;28;20210;-74
2021/01/01 01:08:08;;;;;;;34.67;26.60;;;7.20;99.90;;;;;;5051738;28;20220;-75
2021/01/01 01:10:33;;;;;;;34.73;27.43;;;7.20;99.90;;;;;;5052179;28;20167;-70
2021/01/01 01:12:59;;;;;;;39.27;29.60;;;7.20;99.80;;;;;;5043027;28;20233;-72
2021/01/01 01:15:25;;;;;;;38.07;27.90;;;7.20;99.90;;;;;;5050556;28;20218;-71
2021/01/01 01:17:51;;;;;;;37.93;27.80;;;7.20;99.80;;;;;;5050821;28;20396;-71
2021/01/01 01:20:16;;;;;;;33.73;27.20;;;7.20;99.90;;;;;;5050750;28;20179;-71
2021/01/01 01:22:42;;;;;;;35.10;27.00;;;7.20;99.90;;;;;;5051487;28;20179;-71
2021/01/01 01:25:08;;;;;;;38.20;26.73;;;7.20;99.90;;;;;;5050296;28;20266;-71
2021/01/01 01:27:34;;;;;;;32.23;26.37;;;7.20;99.90;;;;;;5033416;28;20277;-71
2021/01/01 01:30:03;;;;;;;40.57;29.00;;;7.30;99.90;;;;;;5050934;28;20417;-71
2021/01/01 01:32:29;;;;;;;40.20;27.87;;;7.20;99.90;;;;;;5053468;28;20176;-70
2021/01/01 01:34:54;;;;;;;40.70;28.63;;;7.20;99.90;;;;;;5046716;28;20425;-72
2021/01/01 01:37:20;;;;;;;37.13;28.83;;;7.20;99.90;;;;;;5052990;28;20178;-71
2021/01/01 01:39:46;;;;;;;40.10;28.93;;;7.20;99.90;;;;;;5054175;28;20666;-71
2021/01/01 01:42:12;;;;;;;39.70;29.27;;;7.20;99.90;;;;;;5053527;28;20209;-71
2021/01/01 01:44:38;;;;;;;217.13;117.97;;;7.20;99.90;;;;;;5055003;28;20712;-71
2021/01/01 01:47:04;;;;;;;64.67;42.03;;;7.20;99.90;;;;;;5054058;28;20603;-71
2021/01/01 01:49:30;;;;;;;37.70;29.70;;;7.20;99.90;;;;;;5055091;28;20265;-71
2021/01/01 01:51:56;;;;;;;42.80;28.73;;;7.20;99.90;;;;;;5054500;28;20721;-72
2021/01/01 01:54:22;;;;;;;41.97;30.30;;;7.20;99.90;;;;;;5049143;28;20409;-72
2021/01/01 01:56:50;;;;;;;40.70;29.80;;;7.20;99.90;;;;;;5040389;28;20187;-71
2021/01/01 01:59:21;;;;;;;39.00;28.13;;;7.20;99.90;;;;;;5052803;28;20492;-71
2021/01/01 02:01:47;;;;;;;38.53;28.57;;;7.30;99.90;;;;;;5055062;28;20369;-70
2021/01/01 02:04:13;;;;;;;37.87;27.00;;;7.30;99.90;;;;;;5053893;28;20889;-71
2021/01/01 02:06:41;;;;;;;41.50;28.13;;;7.30;99.90;;;;;;5055302;28;20460;-70
2021/01/01 02:09:07;;;;;;;42.13;29.07;;;7.30;99.90;;;;;;5053768;28;20226;-70
2021/01/01 02:11:34;;;;;;;38.20;27.07;;;7.30;99.90;;;;;;5054875;28;20410;-70
2021/01/01 02:14:01;;;;;;;37.60;29.47;;;7.30;99.90;;;;;;5053851;28;20416;-71
2021/01/01 02:16:28;;;;;;;39.20;29.10;;;7.30;99.90;;;;;;5054044;28;20433;-70
2021/01/01 02:18:54;;;;;;;41.90;30.40;;;7.20;99.90;;;;;;5054407;28;20968;-72
2021/01/01 02:21:20;;;;;;;44.10;30.37;;;7.20;99.90;;;;;;5054320;28;20456;-71
2021/01/01 02:23:46;;;;;;;43.83;29.27;;;7.20;99.90;;;;;;5053735;28;20254;-71
2021/01/01 02:26:13;;;;;;;43.97;29.67;;;7.20;99.90;;;;;;5053493;28;20218;-71
2021/01/01 02:28:39;;;;;;;39.43;28.40;;;7.20;99.90;;;;;;5054855;28;20471;-71
2021/01/01 02:31:08;;;;;;;40.30;29.47;;;7.20;99.90;;;;;;5053638;28;20486;-71
2021/01/01 02:33:34;;;;;;;91.10;55.17;;;7.20;99.90;;;;;;5054791;28;20376;-70
2021/01/01 02:36:00;;;;;;;135.17;83.47;;;7.20;99.90;;;;;;5053448;28;20411;-72
2021/01/01 02:38:25;;;;;;;46.53;33.00;;;7.20;99.90;;;;;;5054537;28;20537;-69
2021/01/01 02:40:51;;;;;;;39.93;28.57;;;7.30;99.90;;;;;;5054031;28;20490;-71
2021/01/01 02:43:17;;;;;;;43.73;30.27;;;7.30;99.90;;;;;;5052412;28;20614;-71
2021/01/01 02:45:43;;;;;;;46.30;30.50;;;7.30;99.90;;;;;;5054006;28;20172;-71
2021/01/01 02:48:13;;;;;;;41.23;29.60;;;7.30;99.90;;;;;;5051638;28;20436;-72
2021/01/01 02:50:40;;;;;;;44.97;32.97;;;7.30;99.90;;;;;;5054576;28;20511;-70
2021/01/01 02:53:06;;;;;;;49.30;32.90;;;7.30;99.90;;;;;;5053341;28;20389;-71
2021/01/01 02:55:32;;;;;;;48.70;33.60;;;7.30;99.90;;;;;;5054010;28;20415;-71
2021/01/01 02:57:59;;;;;;;51.83;33.50;;;7.30;99.90;;;;;;5053380;28;20956;-72
2021/01/01 03:00:25;;;;;;;47.37;34.00;;;7.20;99.90;;;;;;5053658;28;20475;-71
2021/01/01 03:02:50;;;;;;;52.90;31.93;;;7.20;99.90;;;;;;5049725;28;20410;-70
2021/01/01 03:05:16;;;;;;;50.93;33.00;;;7.30;99.90;;;;;;5053248;28;20417;-70
2021/01/01 03:07:42;;;;;;;51.17;33.03;;;7.20;99.90;;;;;;5053873;28;20213;-73
2021/01/01 03:10:08;;;;;;;50.73;32.93;;;7.20;99.90;;;;;;5054385;28;20240;-71
2021/01/01 03:12:34;;;;;;;54.73;33.30;;;7.30;99.90;;;;;;5061675;28;20564;-71
2021/01/01 03:15:00;;;;;;;50.50;31.33;;;7.20;99.90;;;;;;5062832;28;20488;-72
2021/01/01 03:17:25;;;;;;;51.07;31.43;;;7.20;99.90;;;;;;5061931;28;20175;-71
2021/01/01 03:19:51;;;;;;;50.87;32.23;;;7.20;99.90;;;;;;5060911;28;20227;-71
2021/01/01 03:22:17;;;;;;;53.33;33.83;;;7.20;99.90;;;;;;5061866;28;20183;-71
2021/01/01 03:24:42;;;;;;;49.53;32.23;;;7.20;99.90;;;;;;5061337;28;20182;-71
2021/01/01 03:27:08;;;;;;;47.77;30.57;;;7.20;99.90;;;;;;5061915;28;20623;-71
2021/01/01 03:29:34;;;;;;;51.30;31.97;;;7.20;99.90;;;;;;5061679;28;20175;-71
2021/01/01 03:31:59;;;;;;;45.10;30.00;;;7.20;99.90;;;;;;5062666;28;20198;-72
2021/01/01 03:34:25;;;;;;;48.43;30.50;;;7.20;99.90;;;;;;5061336;28;20178;-71
2021/01/01 03:36:51;;;;;;;47.97;29.93;;;7.10;99.90;;;;;;5060907;28;20185;-71
2021/01/01 03:39:17;;;;;;;47.47;29.97;;;7.20;99.90;;;;;;5060042;28;20595;-71
2021/01/01 03:41:43;;;;;;;51.13;30.23;;;7.20;99.90;;;;;;5062660;28;20406;-71
2021/01/01 03:44:08;;;;;;;45.73;29.00;;;7.20;99.90;;;;;;5061074;28;20175;-71
2021/01/01 03:46:34;;;;;;;47.93;29.97;;;7.20;99.90;;;;;;5061215;28;20433;-71
2021/01/01 03:49:00;;;;;;;49.73;32.40;;;7.20;99.90;;;;;;5059886;28;20735;-72
2021/01/01 03:51:25;;;;;;;52.10;31.17;;;7.20;99.90;;;;;;5052911;28;20175;-71
2021/01/01 03:53:51;;;;;;;48.07;30.30;;;7.20;99.90;;;;;;5055450;28;20606;-71
2021/01/01 03:56:17;;;;;;;45.10;29.60;;;7.20;99.90;;;;;;5062576;28;20253;-71
2021/01/01 03:58:43;;;;;;;51.57;31.80;;;7.20;99.80;;;;;;5068038;28;20316;-71
2021/01/01 04:01:08;;;;;;;48.93;30.63;;;7.10;99.80;;;;;;5071926;28;20933;-71
2021/01/01 04:03:34;;;;;;;44.93;29.43;;;7.10;99.90;;;;;;5071823;28;20238;-71
2021/01/01 04:06:00;;;;;;;46.33;29.10;;;7.10;99.90;;;;;;5052882;28;20187;-72
2021/01/01 04:08:25;;;;;;;51.27;30.10;;;7.10;99.90;;;;;;5052332;28;20218;-71
2021/01/01 04:10:51;;;;;;;46.20;28.67;;;7.10;99.90;;;;;;5052778;28;20204;-71
2021/01/01 04:13:17;;;;;;;44.13;28.07;;;7.10;99.90;;;;;;5051967;28;20666;-71
2021/01/01 04:15:44;;;;;;;47.30;29.73;;;7.10;99.90;;;;;;5052753;28;20426;-71
2021/01/01 04:18:10;;;;;;;44.30;27.67;;;7.10;99.90;;;;;;5051560;28;20179;-71
2021/01/01 04:20:36;;;;;;;45.87;29.30;;;7.10;99.90;;;;;;5052886;28;20734;-71
2021/01/01 04:23:02;;;;;;;43.30;27.70;;;7.10;99.90;;;;;;5050853;28;20425;-72
2021/01/01 04:25:27;;;;;;;45.80;28.07;;;7.10;99.90;;;;;;5052012;28;20179;-71
2021/01/01 04:27:53;;;;;;;42.97;28.63;;;7.10;99.90;;;;;;5052534;28;20308;-71
2021/01/01 04:30:19;;;;;;;38.97;26.20;;;7.00;99.90;;;;;;5051735;28;20172;-71
2021/01/01 04:32:45;;;;;;;42.47;27.10;;;7.00;99.90;;;;;;5052495;28;20234;-71
2021/01/01 04:35:11;;;;;;;40.80;28.13;;;7.00;99.90;;;;;;5050308;28;20449;-71
2021/01/01 04:37:37;;;;;;;43.03;29.47;;;7.00;99.90;;;;;;5051750;28;20277;-71
2021/01/01 04:40:04;;;;;;;44.77;30.10;;;7.10;99.90;;;;;;5051898;28;20171;-72
2021/01/01 04:42:29;;;;;;;44.63;28.80;;;7.00;99.90;;;;;;5052239;28;20254;-71
2021/01/01 04:44:56;;;;;;;43.67;27.70;;;7.10;99.90;;;;;;5052273;28;20460;-71
2021/01/01 04:47:22;;;;;;;43.73;28.03;;;7.10;99.90;;;;;;5051340;28;20207;-71
2021/01/01 04:49:50;;;;;;;41.20;28.10;;;7.00;99.90;;;;;;5084586;28;20739;-71
2021/01/01 04:52:17;;;;;;;44.83;28.90;;;7.10;99.90;;;;;;5051359;28;20424;-71
2021/01/01 04:54:45;;;;;;;40.20;27.20;;;7.00;99.90;;;;;;5052238;28;20421;-71
2021/01/01 04:57:12;;;;;;;43.47;27.40;;;7.10;99.90;;;;;;5050950;28;20512;-71
2021/01/01 04:59:37;;;;;;;44.27;29.37;;;7.00;99.90;;;;;;5049840;28;20425;-71
2021/01/01 05:02:03;;;;;;;44.17;28.70;;;7.10;99.90;;;;;;5051061;28;20425;-75
2021/01/01 05:04:29;;;;;;;47.80;29.33;;;7.10;99.90;;;;;;5051149;28;20183;-74
2021/01/01 05:06:55;;;;;;;44.10;28.33;;;7.10;99.90;;;;;;5052754;28;20870;-74
2021/01/01 05:09:22;;;;;;;41.90;27.33;;;7.10;99.90;;;;;;5055232;28;20397;-75
2021/01/01 05:11:47;;;;;;;42.50;27.50;;;7.10;99.90;;;;;;5055960;28;20417;-74
2021/01/01 05:14:13;;;;;;;41.73;29.10;;;7.20;99.90;;;;;;5053873;28;20484;-75
2021/01/01 05:16:39;;;;;;;38.27;27.20;;;7.20;99.90;;;;;;5088734;28;20186;-74
2021/01/01 05:19:12;;;;;;;40.03;28.20;;;7.20;99.90;;;;;;5055656;28;20198;-75
2021/01/01 05:21:38;;;;;;;39.83;27.83;;;7.30;99.90;;;;;;5055563;28;20565;-74
2021/01/01 05:24:14;;;;;;;40.57;28.40;;;7.30;99.90;;;;;;5055562;28;20390;-75
2021/01/01 05:26:47;;;;;;;41.00;28.10;;;7.20;99.90;;;;;;5054716;28;20493;-74
2021/01/01 05:29:20;;;;;;;41.00;29.30;;;7.20;99.90;;;;;;5055032;28;20449;-74
2021/01/01 05:31:48;;;;;;;44.63;29.77;;;7.20;99.90;;;;;;5055618;28;20410;-74
2021/01/01 05:34:13;;;;;;;43.07;28.37;;;7.20;99.90;;;;;;5054686;28;20776;-74
2021/01/01 05:36:44;;;;;;;45.33;30.10;;;7.30;99.90;;;;;;5055687;28;20421;-74
2021/01/01 05:39:13;;;;;;;42.80;29.30;;;7.20;99.90;;;;;;5054800;28;20413;-74
2021/01/01 05:41:46;;;;;;;44.10;29.07;;;7.20;99.90;;;;;;5055605;28;20403;-74
2021/01/01 05:44:25;;;;;;;45.70;30.10;;;7.20;99.90;;;;;;5053872;28;20379;-74
2021/01/01 05:47:07;;;;;;;45.10;29.77;;;7.20;99.90;;;;;;5055261;28;20486;-74
2021/01/01 05:49:41;;;;;;;52.47;31.17;;;7.20;99.90;;;;;;5055096;28;20412;-74
2021/01/01 05:52:19;;;;;;;42.60;29.03;;;7.20;99.90;;;;;;5053389;28;20415;-74
2021/01/01 05:54:46;;;;;;;48.07;30.40;;;7.10;99.90;;;;;;5055182;28;20500;-74
2021/01/01 05:57:13;;;;;;;46.13;30.50;;;7.10;99.90;;;;;;5054777;28;20419;-75
2021/01/01 05:59:41;;;;;;;43.10;29.07;;;7.10;99.90;;;;;;5055263;28;20442;-74
2021/01/01 06:02:10;;;;;;;46.00;30.03;;;7.10;99.90;;;;;;5054863;28;20449;-75
2021/01/01 06:04:37;;;;;;;44.50;29.70;;;7.20;99.90;;;;;;5055220;28;20857;-74
2021/01/01 06:07:06;;;;;;;41.40;28.47;;;7.10;99.90;;;;;;5087363;28;20387;-74
2021/01/01 06:09:33;;;;;;;44.20;29.57;;;7.10;99.90;;;;;;5054958;28;20408;-74
2021/01/01 06:12:08;;;;;;;40.30;28.07;;;7.10;99.90;;;;;;5086998;28;20911;-74
2021/01/01 06:14:45;;;;;;;42.80;28.40;;;7.10;99.90;;;;;;5054746;28;20367;-74
2021/01/01 06:17:10;;;;;;;39.90;28.17;;;7.10;99.90;;;;;;5053247;28;20399;-74
2021/01/01 06:19:48;;;;;;;49.47;31.17;;;7.20;99.90;;;;;;5053555;28;20868;-74
2021/01/01 06:22:21;;;;;;;39.80;27.37;;;7.20;99.90;;;;;;5052653;28;20213;-74
2021/01/01 06:24:49;;;;;;;44.83;29.10;;;7.20;99.90;;;;;;5055187;28;20417;-74
2021/01/01 06:27:16;;;;;;;41.07;28.57;;;7.20;99.90;;;;;;5053549;28;20995;-74
2021/01/01 06:29:44;;;;;;;39.70;27.53;;;7.20;99.90;;;;;;5054724;28;20380;-74
2021/01/01 06:32:11;;;;;;;43.33;27.13;;;7.20;99.90;;;;;;5054116;28;20466;-75
2021/01/01 06:34:37;;;;;;;39.07;28.07;;;7.20;99.90;;;;;;5054184;28;20385;-74
2021/01/01 06:37:03;;;;;;;38.40;26.47;;;7.20;99.70;;;;;;5054590;28;20388;-74
2021/01/01 06:39:38;;;;;;;41.60;29.00;;;7.20;99.80;;;;;;5053718;28;20442;-74
2021/01/01 06:42:05;;;;;;;43.20;29.30;;;7.20;99.70;;;;;;5054504;28;20763;-74
2021/01/01 06:44:42;;;;;;;41.53;28.27;;;7.30;99.70;;;;;;5085550;28;20383;-74
2021/01/01 06:47:09;;;;;;;42.37;27.50;;;7.20;99.60;;;;;;5054423;28;20419;-74
2021/01/01 06:49:38;;;;;;;38.33;27.53;;;7.20;99.60;;;;;;5053759;28;20417;-74
2021/01/01 06:52:17;;;;;;;37.50;25.60;;;7.20;99.60;;;;;;5054364;28;20912;-74
2021/01/01 06:54:59;;;;;;;38.27;25.23;;;7.20;99.90;;;;;;5053998;28;20396;-74
2021/01/01 06:57:29;;;;;;;36.73;27.00;;;7.20;99.60;;;;;;5053462;28;20397;-74
2021/01/01 06:59:57;;;;;;;35.57;25.27;;;7.10;99.40;;;;;;5054251;28;20382;-74
2021/01/01 07:02:26;;;;;;;39.47;25.60;;;7.10;99.40;;;;;;5053317;28;20496;-75
2021/01/01 07:04:53;;;;;;;36.27;26.40;;;7.10;99.40;;;;;;5054235;28;20762;-74
2021/01/01 07:07:44;;;;;;;32.70;24.70;;;7.10;99.30;;;;;;5051507;28;20946;-74
2021/01/01 07:10:33;;;;;;;36.60;24.40;;;7.10;99.20;;;;;;5053760;28;20422;-75
2021/01/01 07:13:15;;;;;;;35.87;25.33;;;7.10;99.30;;;;;;5053953;28;20382;-74
2021/01/01 07:15:41;;;;;;;38.27;24.70;;;7.10;99.50;;;;;;5053894;28;20469;-74
2021/01/01 07:18:07;;;;;;;35.67;24.50;;;7.10;99.20;;;;;;5053824;28;20905;-74
2021/01/01 07:20:39;;;;;;;35.40;24.70;;;7.10;99.10;;;;;;5052483;28;20431;-74
2021/01/01 07:23:05;;;;;;;34.00;24.87;;;7.10;99.20;;;;;;5053846;28;20266;-74
2021/01/01 07:25:38;;;;;;;33.73;24.50;;;7.10;99.20;;;;;;5052481;28;20448;-74
2021/01/01 07:28:06;;;;;;;35.47;24.70;;;7.10;99.00;;;;;;5053788;28;20454;-74
2021/01/01 07:30:33;;;;;;;36.40;24.40;;;7.10;99.10;;;;;;5052262;28;20404;-74
2021/01/01 07:32:59;;;;;;;32.47;22.40;;;7.00;99.00;;;;;;5053473;28;20524;-74
2021/01/01 07:35:26;;;;;;;35.97;23.77;;;7.00;99.10;;;;;;5052473;28;20423;-74
2021/01/01 07:37:53;;;;;;;33.13;23.80;;;7.00;99.00;;;;;;5053442;28;20443;-74
2021/01/01 07:40:19;;;;;;;41.13;26.60;;;7.00;99.20;;;;;;5052572;28;20376;-74
2021/01/01 07:42:50;;;;;;;35.73;23.73;;;7.10;99.10;;;;;;5052911;28;20414;-74
2021/01/01 07:45:17;;;;;;;33.57;23.23;;;7.00;99.10;;;;;;5052785;28;20737;-75
2021/01/01 07:47:46;;;;;;;32.23;22.77;;;7.00;99.30;;;;;;5053136;28;20521;-74
2021/01/01 07:50:18;;;;;;;42.17;26.90;;;7.00;99.40;;;;;;5052366;28;20967;-74
2021/01/01 07:52:45;;;;;;;37.90;24.23;;;7.00;99.40;;;;;;5052498;28;20769;-74
2021/01/01 07:55:12;;;;;;;35.63;25.40;;;7.00;99.30;;;;;;5053349;28;20421;-74
2021/01/01 07:57:41;;;;;;;34.63;24.07;;;7.00;99.30;;;;;;5071785;28;20457;-74
2021/01/01 08:00:08;;;;;;;34.97;23.53;;;7.00;99.30;;;;;;5060151;28;20884;-74
2021/01/01 08:02:35;;;;;;;35.73;24.40;;;6.90;99.30;;;;;;5051011;28;20504;-74
2021/01/01 08:05:04;;;;;;;38.83;25.17;;;6.90;99.20;;;;;;5051997;28;20392;-74
2021/01/01 08:07:30;;;;;;;36.10;23.37;;;6.90;99.20;;;;;;5051913;28;20466;-74
2021/01/01 08:09:56;;;;;;;33.40;24.40;;;6.90;99.10;;;;;;5059062;28;20397;-74
2021/01/01 08:12:22;;;;;;;34.80;25.27;;;6.90;99.10;;;;;;5050924;28;20902;-73
2021/01/01 08:14:52;;;;;;;30.00;23.07;;;7.00;99.10;;;;;;5051994;28;20455;-74
2021/01/01 08:17:29;;;;;;;34.80;24.07;;;7.00;99.20;;;;;;5051910;28;20616;-73
2021/01/01 08:19:56;;;;;;;32.40;23.60;;;7.00;99.20;;;;;;5052519;28;20384;-73
2021/01/01 08:22:30;;;;;;;35.97;24.93;;;7.00;99.10;;;;;;5050593;28;20402;-74
2021/01/01 08:24:57;;;;;;;35.90;24.75;;;7.00;99.10;;;;;;5051854;28;20758;-74
2021/01/01 08:27:25;;;;;;;33.20;23.17;;;7.00;99.10;;;;;;5049880;28;20322;-73
2021/01/01 08:29:55;;;;;;;35.63;23.92;;;7.00;99.30;;;;;;5052240;28;20454;-74
2021/01/01 08:32:22;;;;;;;37.77;24.70;;;7.00;99.30;;;;;;5051448;28;20179;-74
2021/01/01 08:34:53;;;;;;;35.70;24.50;;;7.00;99.30;;;;;;5052198;28;20446;-74
2021/01/01 08:37:24;;;;;;;34.80;23.27;;;7.00;99.20;;;;;;5050492;28;20847;-74
2021/01/01 08:40:09;;;;;;;29.43;22.67;;;7.00;99.10;;;;;;5037899;28;20414;-74
2021/01/01 08:42:39;;;;;;;33.37;22.70;;;7.10;99.00;;;;;;5050338;28;20393;-74
2021/01/01 08:45:07;;;;;;;37.37;23.60;;;7.10;99.00;;;;;;5052438;28;20424;-74
2021/01/01 08:47:44;;;;;;;32.10;22.43;;;7.10;98.90;;;;;;5051236;28;20461;-74
2021/01/01 08:50:27;;;;;;;35.70;23.67;;;7.10;99.00;;;;;;5052090;28;20451;-74
2021/01/01 08:53:03;;;;;;;36.70;23.00;;;7.20;99.00;;;;;;5052257;28;20437;-74
2021/01/01 08:55:30;;;;;;;34.53;23.43;;;7.20;99.00;;;;;;5049580;28;20411;-74
2021/01/01 08:58:25;;;;;;;30.03;21.80;;;7.20;98.80;;;;;;5051860;28;20764;-74
2021/01/01 09:00:51;;;;;;;35.13;22.30;;;7.20;98.80;;;;;;5046344;28;20856;-74
2021/01/01 09:03:20;;;;;;;32.57;21.07;;;7.20;98.70;;;;;;5051942;28;20424;-74
2021/01/01 09:05:51;;;;;;;33.13;22.80;;;7.20;98.70;;;;;;5047068;28;20513;-74
2021/01/01 09:08:24;;;;;;;32.10;21.97;;;7.20;98.40;;;;;;5051784;28;20417;-74
2021/01/01 09:10:53;;;;;;;34.37;24.53;;;7.20;98.70;;;;;;5051974;28;20410;-74
2021/01/01 09:13:32;;;;;;;33.93;22.87;;;7.20;98.70;;;;;;5051151;28;20892;-74
2021/01/01 09:16:11;;;;;;;32.73;22.80;;;7.30;98.80;;;;;;5051776;28;20380;-74
2021/01/01 09:18:38;;;;;;;36.20;23.30;;;7.30;98.70;;;;;;5051429;28;20438;-75
2021/01/01 09:21:17;;;;;;;35.80;24.57;;;7.30;98.70;;;;;;5051923;28;20797;-75
2021/01/01 09:23:53;;;;;;;35.33;22.77;;;7.40;98.80;;;;;;5050544;28;20414;-75
2021/01/01 09:26:27;;;;;;;37.30;24.43;;;7.40;98.50;;;;;;5050423;28;20935;-75
2021/01/01 09:29:11;;;;;;;35.60;24.00;;;7.50;98.50;;;;;;5051808;28;20456;-74
2021/01/01 09:31:38;;;;;;;32.33;22.40;;;7.50;98.50;;;;;;5050488;28;20402;-74
2021/01/01 09:34:08;;;;;;;38.03;23.43;;;7.60;98.30;;;;;;5050104;28;20424;-74
2021/01/01 09:36:39;;;;;;;30.60;22.07;;;7.60;98.20;;;;;;5049116;28;20427;-75
2021/01/01 09:39:06;;;;;;;31.77;23.27;;;7.60;98.40;;;;;;5051463;28;20429;-75
2021/01/01 09:41:33;;;;;;;36.57;25.37;;;7.60;98.90;;;;;;5066190;28;20764;-75
2021/01/01 09:43:58;;;;;;;32.10;23.23;;;7.70;98.70;;;;;;5051666;28;20501;-74
2021/01/01 09:46:24;;;;;;;33.90;23.30;;;7.70;98.70;;;;;;5051000;28;20835;-75
2021/01/01 09:48:50;;;;;;;36.07;24.47;;;7.80;98.70;;;;;;5081890;28;20571;-75
2021/01/01 09:51:15;;;;;;;31.87;23.33;;;7.80;98.40;;;;;;5051344;28;20552;-75
2021/01/01 09:53:41;;;;;;;35.50;23.80;;;7.90;98.20;;;;;;5052292;28;20339;-75
2021/01/01 09:56:07;;;;;;;34.23;24.50;;;8.00;98.00;;;;;;5055055;28;20211;-72
2021/01/01 09:58:33;;;;;;;33.00;22.17;;;8.00;97.80;;;;;;5054546;28;20520;-75
2021/01/01 10:00:59;;;;;;;35.17;25.27;;;8.00;97.80;;;;;;5055392;28;20208;-75
2021/01/01 10:03:24;;;;;;;36.80;25.43;;;8.10;98.00;;;;;;5053535;28;20532;-76
2021/01/01 10:05:50;;;;;;;34.47;23.73;;;8.10;98.00;;;;;;5054663;28;20423;-75
2021/01/01 10:08:16;;;;;;;34.53;23.90;;;8.20;98.10;;;;;;5075438;28;20208;-75
2021/01/01 10:10:46;;;;;;;38.20;25.47;;;8.20;98.00;;;;;;5054262;28;20211;-76
2021/01/01 10:13:12;;;;;;;33.20;25.30;;;8.70;99.90;;;;;;5055029;28;20486;-75
2021/01/01 10:15:38;;;;;;;36.70;24.70;;;9.50;99.90;;;;;;5053479;28;20566;-77
2021/01/01 10:18:04;;;;;;;38.23;24.70;;;10.00;99.90;;;;;;5054451;28;20433;-76
2021/01/01 10:20:30;;;;;;;36.53;24.90;;;10.60;99.90;;;;;;5053579;28;20443;-76
2021/01/01 10:22:56;;;;;;;31.33;24.57;;;11.00;99.90;;;;;;5054395;28;20772;-76
2021/01/01 10:25:22;;;;;;;38.00;25.60;;;11.50;99.90;;;;;;5054521;28;20569;-77
2021/01/01 10:27:47;;;;;;;31.80;24.10;;;11.90;99.80;;;;;;5053590;28;20506;-76
2021/01/01 10:30:14;;;;;;;36.00;25.00;;;12.20;98.90;;;;;;5054647;28;20535;-76
2021/01/01 10:32:39;;;;;;;34.43;24.63;;;12.50;97.70;;;;;;5053317;28;20946;-76
2021/01/01 10:35:06;;;;;;;34.47;25.20;;;12.80;97.10;;;;;;5053561;28;20440;-73
2021/01/01 10:37:32;;;;;;;28.63;20.80;;;13.10;97.20;;;;;;5052761;28;20640;-74
2021/01/01 10:39:58;;;;;;;36.10;24.67;;;13.50;99.60;;;;;;5054512;28;20403;-75
2021/01/01 10:42:27;;;;;;;36.47;26.23;;;13.80;97.90;;;;;;5058842;28;20480;-75
2021/01/01 10:44:53;;;;;;;39.30;24.67;;;13.70;91.00;;;;;;5061407;28;20568;-75
2021/01/01 10:47:19;;;;;;;34.60;25.10;;;13.40;84.80;;;;;;5062775;28;20465;-75
2021/01/01 10:49:45;;;;;;;40.00;26.23;;;13.10;82.90;;;;;;5060825;28;20169;-75
2021/01/01 10:52:11;;;;;;;37.73;25.00;;;12.70;82.90;;;;;;5060571;28;20775;-74
2021/01/01 10:54:36;;;;;;;37.63;24.53;;;12.30;84.40;;;;;;5061304;28;20187;-75
2021/01/01 10:57:02;;;;;;;38.10;25.60;;;12.00;84.40;;;;;;5063681;28;20188;-73
2021/01/01 10:59:28;;;;;;;34.57;23.53;;;11.70;86.00;;;;;;5061466;28;20199;-74
2021/01/01 11:01:55;;;;;;;39.30;25.20;;;11.50;87.40;;;;;;5061206;28;20415;-74
2021/01/01 11:04:21;;;;;;;457.53;265.03;;;11.30;88.00;;;;;;5060658;28;20165;-74
2021/01/01 11:06:47;;;;;;;84.53;53.20;;;11.10;89.40;;;;;;5062459;28;20434;-74
2021/01/01 11:09:12;;;;;;;39.90;26.90;;;11.00;89.90;;;;;;5044824;28;20453;-74
2021/01/01 11:11:38;;;;;;;39.53;25.10;;;10.90;90.00;;;;;;5060662;28;20242;-74
2021/01/01 12:20:45;;;;;;;117.70;64.43;;;8.90;94.00;;;;;;5052755;28;20509;-72
2021/01/01 12:25:49;;;;;;;29.23;20.40;;;8.90;93.60;;;;;;5050802;28;20435;-73
2021/01/01 12:28:15;;;;;;;33.20;19.80;;;8.80;93.60;;;;;;5052295;28;20471;-72
2021/01/01 12:30:42;;;;;;;34.43;21.90;;;8.90;93.60;;;;;;5049991;28;20185;-72
2021/01/01 12:33:09;;;;;;;34.50;21.70;;;8.80;93.40;;;;;;5052548;28;20181;-72
2021/01/01 12:35:37;;;;;;;30.10;19.17;;;8.80;93.50;;;;;;5051875;28;20403;-72
2021/01/01 12:38:04;;;;;;;35.20;20.90;;;8.80;93.60;;;;;;5052237;28;20538;-72
2021/01/01 12:40:33;;;;;;;33.67;20.80;;;8.80;93.70;;;;;;5050133;28;20446;-73
2021/01/01 12:43:01;;;;;;;30.90;21.03;;;8.80;93.70;;;;;;5066716;28;20400;-72
2021/01/01 12:45:27;;;;;;;38.00;21.77;;;8.80;93.60;;;;;;5051978;28;20416;-73
2021/01/01 12:47:53;;;;;;;34.90;22.63;;;8.80;93.80;;;;;;5062523;28;20515;-72
2021/01/01 12:50:19;;;;;;;33.13;20.23;;;8.70;93.70;;;;;;5060817;28;20887;-72
2021/01/01 12:52:56;;;;;;;31.27;20.47;;;8.80;94.00;;;;;;5059688;28;20416;-72
2021/01/01 12:55:23;;;;;;;34.57;20.53;;;8.80;94.00;;;;;;5065964;28;20442;-73
2021/01/01 12:57:49;;;;;;;40.67;22.13;;;8.80;93.80;;;;;;5061723;28;20420;-73
2021/01/01 13:00:15;;;;;;;36.37;22.00;;;8.80;93.80;;;;;;5061110;28;20494;-73
2021/01/01 13:02:41;;;;;;;37.23;23.70;;;8.90;94.00;;;;;;5069470;28;20423;-73
2021/01/01 13:05:08;;;;;;;37.43;23.07;;;8.90;93.90;;;;;;5071978;28;20404;-73
2021/01/01 13:07:34;;;;;;;230.80;129.10;;;8.90;93.70;;;;;;5071609;28;20865;-74
2021/01/01 13:10:00;;;;;;;47.67;29.07;;;9.00;93.80;;;;;;5072019;28;20447;-74
2021/01/01 13:12:26;;;;;;;41.30;24.67;;;9.00;93.60;;;;;;5065840;28;20754;-73
2021/01/01 13:14:52;;;;;;;39.20;24.50;;;9.00;93.50;;;;;;5062242;28;20434;-73
2021/01/01 13:17:18;;;;;;;35.70;23.87;;;9.00;93.20;;;;;;5070143;28;20183;-73
2021/01/01 13:19:43;;;;;;;39.87;24.10;;;8.90;93.00;;;;;;5071157;28;20505;-74
2021/01/01 13:22:09;;;;;;;36.87;24.97;;;8.90;93.10;;;;;;5051423;28;20946;-72
2021/01/01 13:24:35;;;;;;;39.37;23.20;;;9.00;93.10;;;;;;5050554;28;20460;-73
2021/01/01 13:27:01;;;;;;;36.53;22.70;;;9.00;93.00;;;;;;5051565;28;20227;-72
2021/01/01 13:29:26;;;;;;;231.00;151.27;;;8.90;92.80;;;;;;5055044;28;20216;-71
2021/01/01 13:31:52;;;;;;;343.93;186.63;;;8.90;93.00;;;;;;5055063;28;20231;-73
2021/01/01 13:34:18;;;;;;;74.33;46.87;;;8.90;93.50;;;;;;5055677;28;20181;-72
2021/01/01 13:36:43;;;;;;;41.00;25.73;;;9.00;93.50;;;;;;5054564;28;20243;-72
2021/01/01 13:39:09;;;;;;;39.13;23.90;;;9.00;93.40;;;;;;5055137;28;20182;-72
2021/01/01 13:41:39;;;;;;;36.60;23.87;;;9.10;93.00;;;;;;5054760;28;20174;-73
2021/01/01 13:44:05;;;;;;;36.70;22.73;;;9.10;92.80;;;;;;5055588;28;20412;-73
2021/01/01 13:46:35;;;;;;;32.23;21.67;;;9.10;92.70;;;;;;5055145;28;20427;-73
2021/01/01 13:49:01;;;;;;;38.77;23.50;;;9.10;92.60;;;;;;5055385;28;20848;-72